sensor_id;sensor_type;location;lat;lon;timestamp;P1;durP1;ratioP1;P2;durP2;ratioP2
62957;SDS011;49056;48.352;10.926;2023-12-28T00:02:34;2.72;;;1.20;;
62957;SDS011;49056;48.352;10.926;2023-12-28T00:07:55;1.08;;;0.62;;
62957;SDS011;49056;48.352;10.926;2023-12-28T00:13:17;1.30;;;0.90;;
62957;SDS011;49056;48.352;10.926;2023-12-28T00:18:38;2.40;;;1.00;;
62957;SDS011;49056;48.352;10.926;2023-12-28T00:23:58;1.75;;;0.98;;
62957;SDS011;49056;48.352;10.926;2023-12-28T00:29:18;0.88;;;0.60;;
62957;SDS011;49056;48.352;10.926;2023-12-28T00:34:38;1.42;;;1.02;;
62957;SDS011;49056;48.352;10.926;2023-12-28T00:39:59;2.20;;;0.75;;
62957;SDS011;49056;48.352;10.926;2023-12-28T00:45:20;1.65;;;0.82;;
62957;SDS011;49056;48.352;10.926;2023-12-28T00:50:40;2.42;;;0.90;;
62957;SDS011;49056;48.352;10.926;2023-12-28T00:56:00;1.30;;;0.82;;
62957;SDS011;49056;48.352;10.926;2023-12-28T01:01:20;1.55;;;0.80;;
62957;SDS011;49056;48.352;10.926;2023-12-28T01:06:41;2.33;;;1.00;;
62957;SDS011;49056;48.352;10.926;2023-12-28T01:12:01;1.75;;;0.80;;
62957;SDS011;49056;48.352;10.926;2023-12-28T01:17:21;2.08;;;1.08;;
62957;SDS011;49056;48.352;10.926;2023-12-28T01:22:42;1.65;;;0.95;;
62957;SDS011;49056;48.352;10.926;2023-12-28T01:28:02;1.70;;;0.60;;
62957;SDS011;49056;48.352;10.926;2023-12-28T01:33:23;3.45;;;0.75;;
62957;SDS011;49056;48.352;10.926;2023-12-28T01:38:43;0.80;;;0.60;;
62957;SDS011;49056;48.352;10.926;2023-12-28T01:44:03;1.60;;;0.63;;
62957;SDS011;49056;48.352;10.926;2023-12-28T01:49:24;1.53;;;0.60;;
62957;SDS011;49056;48.352;10.926;2023-12-28T01:54:44;1.17;;;0.93;;
62957;SDS011;49056;48.352;10.926;2023-12-28T02:00:04;1.25;;;0.70;;
62957;SDS011;49056;48.352;10.926;2023-12-28T02:05:25;0.77;;;0.50;;
62957;SDS011;49056;48.352;10.926;2023-12-28T02:10:45;1.58;;;0.73;;
62957;SDS011;49056;48.352;10.926;2023-12-28T02:16:13;1.10;;;0.50;;
62957;SDS011;49056;48.352;10.926;2023-12-28T02:21:33;0.60;;;0.52;;
62957;SDS011;49056;48.352;10.926;2023-12-28T02:26:54;1.47;;;0.77;;
62957;SDS011;49056;48.352;10.926;2023-12-28T02:32:14;1.80;;;0.70;;
62957;SDS011;49056;48.352;10.926;2023-12-28T02:37:35;1.25;;;0.40;;
62957;SDS011;49056;48.352;10.926;2023-12-28T02:42:57;1.02;;;0.50;;
62957;SDS011;49056;48.352;10.926;2023-12-28T02:48:17;1.02;;;0.93;;
62957;SDS011;49056;48.352;10.926;2023-12-28T02:53:37;0.57;;;0.35;;
62957;SDS011;49056;48.352;10.926;2023-12-28T02:58:58;1.35;;;0.70;;
62957;SDS011;49056;48.352;10.926;2023-12-28T03:04:18;0.60;;;0.40;;
62957;SDS011;49056;48.352;10.926;2023-12-28T03:09:39;1.17;;;0.62;;
62957;SDS011;49056;48.352;10.926;2023-12-28T03:14:59;0.90;;;0.70;;
62957;SDS011;49056;48.352;10.926;2023-12-28T03:20:20;1.75;;;0.70;;
62957;SDS011;49056;48.352;10.926;2023-12-28T03:25:40;1.30;;;0.73;;
62957;SDS011;49056;48.352;10.926;2023-12-28T03:31:03;0.53;;;0.30;;
62957;SDS011;49056;48.352;10.926;2023-12-28T03:36:24;0.82;;;0.50;;
62957;SDS011;49056;48.352;10.926;2023-12-28T03:41:44;1.37;;;0.70;;
62957;SDS011;49056;48.352;10.926;2023-12-28T03:47:04;0.73;;;0.57;;
62957;SDS011;49056;48.352;10.926;2023-12-28T03:52:28;0.83;;;0.40;;
62957;SDS011;49056;48.352;10.926;2023-12-28T03:57:50;2.15;;;0.50;;
62957;SDS011;49056;48.352;10.926;2023-12-28T04:03:11;1.00;;;0.43;;
62957;SDS011;49056;48.352;10.926;2023-12-28T04:08:31;0.90;;;0.50;;
62957;SDS011;49056;48.352;10.926;2023-12-28T04:13:52;0.30;;;0.30;;
62957;SDS011;49056;48.352;10.926;2023-12-28T04:19:12;0.20;;;0.20;;
62957;SDS011;49056;48.352;10.926;2023-12-28T04:24:32;0.97;;;0.50;;
62957;SDS011;49056;48.352;10.926;2023-12-28T04:29:53;0.97;;;0.70;;
62957;SDS011;49056;48.352;10.926;2023-12-28T04:35:13;1.15;;;0.62;;
62957;SDS011;49056;48.352;10.926;2023-12-28T04:40:33;2.33;;;0.70;;
62957;SDS011;49056;48.352;10.926;2023-12-28T04:45:54;1.00;;;0.30;;
62957;SDS011;49056;48.352;10.926;2023-12-28T04:51:14;0.40;;;0.30;;
62957;SDS011;49056;48.352;10.926;2023-12-28T04:56:34;0.43;;;0.30;;
62957;SDS011;49056;48.352;10.926;2023-12-28T05:01:55;0.77;;;0.40;;
62957;SDS011;49056;48.352;10.926;2023-12-28T05:07:15;0.82;;;0.40;;
62957;SDS011;49056;48.352;10.926;2023-12-28T05:12:35;0.50;;;0.30;;
62957;SDS011;49056;48.352;10.926;2023-12-28T05:17:55;0.75;;;0.30;;
62957;SDS011;49056;48.352;10.926;2023-12-28T05:23:16;2.00;;;0.43;;
62957;SDS011;49056;48.352;10.926;2023-12-28T05:28:36;0.60;;;0.40;;
62957;SDS011;49056;48.352;10.926;2023-12-28T05:33:56;0.37;;;0.20;;
62957;SDS011;49056;48.352;10.926;2023-12-28T05:39:18;0.37;;;0.22;;
62957;SDS011;49056;48.352;10.926;2023-12-28T05:44:38;0.65;;;0.40;;
62957;SDS011;49056;48.352;10.926;2023-12-28T05:49:59;0.90;;;0.35;;
62957;SDS011;49056;48.352;10.926;2023-12-28T05:55:19;0.93;;;0.73;;
62957;SDS011;49056;48.352;10.926;2023-12-28T06:00:39;0.40;;;0.32;;
62957;SDS011;49056;48.352;10.926;2023-12-28T06:05:59;1.47;;;0.60;;
62957;SDS011;49056;48.352;10.926;2023-12-28T06:11:20;0.40;;;0.30;;
62957;SDS011;49056;48.352;10.926;2023-12-28T06:16:40;0.57;;;0.25;;
62957;SDS011;49056;48.352;10.926;2023-12-28T06:22:00;0.55;;;0.28;;
62957;SDS011;49056;48.352;10.926;2023-12-28T06:27:21;0.55;;;0.22;;
62957;SDS011;49056;48.352;10.926;2023-12-28T06:32:41;1.27;;;0.28;;
62957;SDS011;49056;48.352;10.926;2023-12-28T06:38:02;1.15;;;0.45;;
62957;SDS011;49056;48.352;10.926;2023-12-28T06:43:22;0.52;;;0.30;;
62957;SDS011;49056;48.352;10.926;2023-12-28T06:48:42;0.28;;;0.28;;
62957;SDS011;49056;48.352;10.926;2023-12-28T06:54:03;0.30;;;0.28;;
62957;SDS011;49056;48.352;10.926;2023-12-28T06:59:23;0.43;;;0.30;;
62957;SDS011;49056;48.352;10.926;2023-12-28T07:04:44;0.75;;;0.40;;
62957;SDS011;49056;48.352;10.926;2023-12-28T07:10:04;0.20;;;0.20;;
62957;SDS011;49056;48.352;10.926;2023-12-28T07:15:25;0.60;;;0.20;;
62957;SDS011;49056;48.352;10.926;2023-12-28T07:20:45;0.50;;;0.20;;
62957;SDS011;49056;48.352;10.926;2023-12-28T07:26:05;0.90;;;0.40;;
62957;SDS011;49056;48.352;10.926;2023-12-28T07:31:26;0.10;;;0.10;;
62957;SDS011;49056;48.352;10.926;2023-12-28T07:36:47;0.40;;;0.08;;
62957;SDS011;49056;48.352;10.926;2023-12-28T07:42:07;1.17;;;0.30;;
62957;SDS011;49056;48.352;10.926;2023-12-28T07:47:28;0.70;;;0.20;;
62957;SDS011;49056;48.352;10.926;2023-12-28T07:52:48;0.30;;;0.10;;
62957;SDS011;49056;48.352;10.926;2023-12-28T07:58:09;0.77;;;0.40;;
62957;SDS011;49056;48.352;10.926;2023-12-28T08:03:29;0.20;;;0.13;;
62957;SDS011;49056;48.352;10.926;2023-12-28T08:08:50;1.40;;;0.20;;
62957;SDS011;49056;48.352;10.926;2023-12-28T08:14:10;0.30;;;0.17;;
62957;SDS011;49056;48.352;10.926;2023-12-28T08:19:30;0.20;;;0.20;;
62957;SDS011;49056;48.352;10.926;2023-12-28T08:24:50;0.62;;;0.20;;
62957;SDS011;49056;48.352;10.926;2023-12-28T08:30:11;0.50;;;0.27;;
62957;SDS011;49056;48.352;10.926;2023-12-28T08:35:31;0.85;;;0.30;;
62957;SDS011;49056;48.352;10.926;2023-12-28T08:40:51;0.45;;;0.13;;
62957;SDS011;49056;48.352;10.926;2023-12-28T08:46:12;0.30;;;0.20;;
62957;SDS011;49056;48.352;10.926;2023-12-28T08:51:32;0.82;;;0.50;;
62957;SDS011;49056;48.352;10.926;2023-12-28T08:56:52;0.65;;;0.35;;
62957;SDS011;49056;48.352;10.926;2023-12-28T09:02:13;0.40;;;0.17;;
62957;SDS011;49056;48.352;10.926;2023-12-28T09:07:33;0.15;;;0.13;;
62957;SDS011;49056;48.352;10.926;2023-12-28T09:12:56;0.08;;;0.08;;
62957;SDS011;49056;48.352;10.926;2023-12-28T09:18:16;0.65;;;0.45;;
62957;SDS011;49056;48.352;10.926;2023-12-28T09:23:36;0.52;;;0.30;;
62957;SDS011;49056;48.352;10.926;2023-12-28T09:28:57;0.45;;;0.22;;
62957;SDS011;49056;48.352;10.926;2023-12-28T09:34:17;0.50;;;0.20;;
62957;SDS011;49056;48.352;10.926;2023-12-28T09:39:37;0.20;;;0.10;;
62957;SDS011;49056;48.352;10.926;2023-12-28T09:44:58;0.20;;;0.20;;
62957;SDS011;49056;48.352;10.926;2023-12-28T09:50:18;0.32;;;0.20;;
62957;SDS011;49056;48.352;10.926;2023-12-28T09:55:39;0.55;;;0.30;;
62957;SDS011;49056;48.352;10.926;2023-12-28T10:00:59;0.32;;;0.20;;
62957;SDS011;49056;48.352;10.926;2023-12-28T10:06:21;0.75;;;0.30;;
62957;SDS011;49056;48.352;10.926;2023-12-28T10:11:41;0.90;;;0.20;;
62957;SDS011;49056;48.352;10.926;2023-12-28T10:17:01;0.30;;;0.13;;
62957;SDS011;49056;48.352;10.926;2023-12-28T10:22:22;0.55;;;0.10;;
62957;SDS011;49056;48.352;10.926;2023-12-28T10:27:42;0.20;;;0.20;;
62957;SDS011;49056;48.352;10.926;2023-12-28T10:33:06;0.80;;;0.30;;
62957;SDS011;49056;48.352;10.926;2023-12-28T10:38:27;0.60;;;0.50;;
62957;SDS011;49056;48.352;10.926;2023-12-28T10:43:54;0.32;;;0.13;;
62957;SDS011;49056;48.352;10.926;2023-12-28T10:49:19;0.80;;;0.30;;
62957;SDS011;49056;48.352;10.926;2023-12-28T10:54:47;0.93;;;0.45;;
62957;SDS011;49056;48.352;10.926;2023-12-28T11:00:13;0.43;;;0.37;;
62957;SDS011;49056;48.352;10.926;2023-12-28T11:05:34;0.30;;;0.20;;
62957;SDS011;49056;48.352;10.926;2023-12-28T11:10:55;0.95;;;0.30;;
62957;SDS011;49056;48.352;10.926;2023-12-28T11:16:16;0.60;;;0.28;;
62957;SDS011;49056;48.352;10.926;2023-12-28T11:21:37;0.77;;;0.40;;
62957;SDS011;49056;48.352;10.926;2023-12-28T11:26:57;0.40;;;0.20;;
62957;SDS011;49056;48.352;10.926;2023-12-28T11:32:19;0.20;;;0.20;;
62957;SDS011;49056;48.352;10.926;2023-12-28T11:37:40;0.93;;;0.30;;
62957;SDS011;49056;48.352;10.926;2023-12-28T11:43:01;1.42;;;0.77;;
62957;SDS011;49056;48.352;10.926;2023-12-28T11:48:22;0.60;;;0.40;;
62957;SDS011;49056;48.352;10.926;2023-12-28T11:53:43;1.50;;;0.57;;
62957;SDS011;49056;48.352;10.926;2023-12-28T11:59:04;0.43;;;0.30;;
62957;SDS011;49056;48.352;10.926;2023-12-28T12:04:25;0.40;;;0.35;;
62957;SDS011;49056;48.352;10.926;2023-12-28T12:09:45;0.32;;;0.30;;
62957;SDS011;49056;48.352;10.926;2023-12-28T12:15:06;0.80;;;0.60;;
62957;SDS011;49056;48.352;10.926;2023-12-28T12:20:28;0.93;;;0.50;;
62957;SDS011;49056;48.352;10.926;2023-12-28T12:25:49;0.30;;;0.25;;
62957;SDS011;49056;48.352;10.926;2023-12-28T12:31:09;0.57;;;0.40;;
62957;SDS011;49056;48.352;10.926;2023-12-28T12:36:29;0.22;;;0.20;;
62957;SDS011;49056;48.352;10.926;2023-12-28T12:41:50;0.60;;;0.50;;
62957;SDS011;49056;48.352;10.926;2023-12-28T12:47:12;0.50;;;0.32;;
62957;SDS011;49056;48.352;10.926;2023-12-28T12:52:32;1.08;;;0.40;;
62957;SDS011;49056;48.352;10.926;2023-12-28T12:57:53;0.70;;;0.30;;
62957;SDS011;49056;48.352;10.926;2023-12-28T13:03:16;0.62;;;0.45;;
62957;SDS011;49056;48.352;10.926;2023-12-28T13:08:37;0.25;;;0.17;;
62957;SDS011;49056;48.352;10.926;2023-12-28T13:13:57;0.67;;;0.20;;
62957;SDS011;49056;48.352;10.926;2023-12-28T13:19:18;0.30;;;0.20;;
62957;SDS011;49056;48.352;10.926;2023-12-28T13:24:38;0.30;;;0.20;;
62957;SDS011;49056;48.352;10.926;2023-12-28T13:29:59;0.30;;;0.20;;
62957;SDS011;49056;48.352;10.926;2023-12-28T13:35:19;0.77;;;0.40;;
62957;SDS011;49056;48.352;10.926;2023-12-28T13:40:39;0.52;;;0.22;;
62957;SDS011;49056;48.352;10.926;2023-12-28T13:46:00;0.40;;;0.22;;
62957;SDS011;49056;48.352;10.926;2023-12-28T13:51:21;0.50;;;0.30;;
62957;SDS011;49056;48.352;10.926;2023-12-28T13:56:41;0.68;;;0.30;;
62957;SDS011;49056;48.352;10.926;2023-12-28T14:02:02;0.93;;;0.45;;
62957;SDS011;49056;48.352;10.926;2023-12-28T14:07:23;0.28;;;0.17;;
62957;SDS011;49056;48.352;10.926;2023-12-28T14:12:44;0.30;;;0.20;;
62957;SDS011;49056;48.352;10.926;2023-12-28T14:18:04;0.10;;;0.10;;
62957;SDS011;49056;48.352;10.926;2023-12-28T14:23:27;0.73;;;0.47;;
62957;SDS011;49056;48.352;10.926;2023-12-28T14:28:47;0.80;;;0.43;;
62957;SDS011;49056;48.352;10.926;2023-12-28T14:34:07;0.30;;;0.25;;
62957;SDS011;49056;48.352;10.926;2023-12-28T14:39:28;0.65;;;0.50;;
62957;SDS011;49056;48.352;10.926;2023-12-28T14:44:49;0.40;;;0.20;;
62957;SDS011;49056;48.352;10.926;2023-12-28T14:50:11;0.25;;;0.20;;
62957;SDS011;49056;48.352;10.926;2023-12-28T14:55:31;0.73;;;0.28;;
62957;SDS011;49056;48.352;10.926;2023-12-28T15:00:52;1.67;;;0.35;;
62957;SDS011;49056;48.352;10.926;2023-12-28T15:06:12;0.47;;;0.32;;
62957;SDS011;49056;48.352;10.926;2023-12-28T15:11:32;0.32;;;0.10;;
62957;SDS011;49056;48.352;10.926;2023-12-28T15:16:53;0.43;;;0.30;;
62957;SDS011;49056;48.352;10.926;2023-12-28T15:22:13;0.93;;;0.40;;
62957;SDS011;49056;48.352;10.926;2023-12-28T15:27:34;0.93;;;0.30;;
62957;SDS011;49056;48.352;10.926;2023-12-28T15:32:54;0.57;;;0.40;;
62957;SDS011;49056;48.352;10.926;2023-12-28T15:38:15;0.43;;;0.20;;
62957;SDS011;49056;48.352;10.926;2023-12-28T15:43:35;0.93;;;0.50;;
62957;SDS011;49056;48.352;10.926;2023-12-28T15:48:56;1.10;;;0.37;;
62957;SDS011;49056;48.352;10.926;2023-12-28T15:54:16;1.33;;;0.37;;
62957;SDS011;49056;48.352;10.926;2023-12-28T15:59:37;0.52;;;0.40;;
62957;SDS011;49056;48.352;10.926;2023-12-28T16:04:57;0.33;;;0.33;;
62957;SDS011;49056;48.352;10.926;2023-12-28T16:10:18;1.02;;;0.50;;
62957;SDS011;49056;48.352;10.926;2023-12-28T16:15:38;1.12;;;0.45;;
62957;SDS011;49056;48.352;10.926;2023-12-28T16:21:01;1.12;;;0.50;;
62957;SDS011;49056;48.352;10.926;2023-12-28T16:26:21;0.70;;;0.47;;
62957;SDS011;49056;48.352;10.926;2023-12-28T16:31:42;0.80;;;0.40;;
62957;SDS011;49056;48.352;10.926;2023-12-28T16:37:02;1.40;;;0.60;;
62957;SDS011;49056;48.352;10.926;2023-12-28T16:42:23;0.98;;;0.37;;
62957;SDS011;49056;48.352;10.926;2023-12-28T16:47:43;0.90;;;0.43;;
62957;SDS011;49056;48.352;10.926;2023-12-28T16:53:03;0.60;;;0.37;;
62957;SDS011;49056;48.352;10.926;2023-12-28T16:58:23;0.80;;;0.40;;
62957;SDS011;49056;48.352;10.926;2023-12-28T17:03:44;1.98;;;0.70;;
62957;SDS011;49056;48.352;10.926;2023-12-28T17:09:04;0.40;;;0.40;;
62957;SDS011;49056;48.352;10.926;2023-12-28T17:14:29;0.50;;;0.40;;
62957;SDS011;49056;48.352;10.926;2023-12-28T17:19:49;1.53;;;0.70;;
62957;SDS011;49056;48.352;10.926;2023-12-28T17:30:51;1.15;;;0.60;;
62957;SDS011;49056;48.352;10.926;2023-12-28T17:36:12;0.40;;;0.30;;
62957;SDS011;49056;48.352;10.926;2023-12-28T17:41:34;0.93;;;0.45;;
62957;SDS011;49056;48.352;10.926;2023-12-28T17:46:57;0.70;;;0.40;;
62957;SDS011;49056;48.352;10.926;2023-12-28T17:52:19;0.93;;;0.60;;
62957;SDS011;49056;48.352;10.926;2023-12-28T17:57:41;0.77;;;0.43;;
62957;SDS011;49056;48.352;10.926;2023-12-28T18:03:02;0.68;;;0.50;;
62957;SDS011;49056;48.352;10.926;2023-12-28T18:08:22;0.67;;;0.30;;
62957;SDS011;49056;48.352;10.926;2023-12-28T18:13:42;0.62;;;0.32;;
62957;SDS011;49056;48.352;10.926;2023-12-28T18:19:03;0.60;;;0.40;;
62957;SDS011;49056;48.352;10.926;2023-12-28T18:24:24;1.83;;;0.62;;
62957;SDS011;49056;48.352;10.926;2023-12-28T18:29:44;1.37;;;0.60;;
62957;SDS011;49056;48.352;10.926;2023-12-28T18:35:09;0.43;;;0.37;;
62957;SDS011;49056;48.352;10.926;2023-12-28T18:40:29;1.48;;;0.50;;
62957;SDS011;49056;48.352;10.926;2023-12-28T18:45:49;0.77;;;0.60;;
62957;SDS011;49056;48.352;10.926;2023-12-28T18:51:10;2.15;;;0.47;;
62957;SDS011;49056;48.352;10.926;2023-12-28T18:56:31;0.85;;;0.57;;
62957;SDS011;49056;48.352;10.926;2023-12-28T19:01:51;1.33;;;0.60;;
62957;SDS011;49056;48.352;10.926;2023-12-28T19:07:12;1.52;;;0.57;;
62957;SDS011;49056;48.352;10.926;2023-12-28T19:12:32;0.93;;;0.62;;
62957;SDS011;49056;48.352;10.926;2023-12-28T19:17:52;1.12;;;0.65;;
62957;SDS011;49056;48.352;10.926;2023-12-28T19:23:13;1.70;;;0.70;;
62957;SDS011;49056;48.352;10.926;2023-12-28T19:28:33;1.12;;;0.60;;
62957;SDS011;49056;48.352;10.926;2023-12-28T19:33:53;1.23;;;0.80;;
62957;SDS011;49056;48.352;10.926;2023-12-28T19:39:14;1.02;;;0.73;;
62957;SDS011;49056;48.352;10.926;2023-12-28T19:44:34;1.65;;;0.77;;
62957;SDS011;49056;48.352;10.926;2023-12-28T19:49:54;1.42;;;0.80;;
62957;SDS011;49056;48.352;10.926;2023-12-28T19:55:15;1.40;;;0.62;;
62957;SDS011;49056;48.352;10.926;2023-12-28T20:00:36;1.17;;;0.70;;
62957;SDS011;49056;48.352;10.926;2023-12-28T20:05:58;0.82;;;0.70;;
62957;SDS011;49056;48.352;10.926;2023-12-28T20:11:18;1.33;;;0.70;;
62957;SDS011;49056;48.352;10.926;2023-12-28T20:16:39;1.53;;;0.73;;
62957;SDS011;49056;48.352;10.926;2023-12-28T20:22:00;0.98;;;0.68;;
62957;SDS011;49056;48.352;10.926;2023-12-28T20:27:20;2.22;;;0.70;;
62957;SDS011;49056;48.352;10.926;2023-12-28T20:32:41;0.47;;;0.40;;
62957;SDS011;49056;48.352;10.926;2023-12-28T20:38:01;0.60;;;0.40;;
62957;SDS011;49056;48.352;10.926;2023-12-28T20:43:21;1.15;;;0.60;;
62957;SDS011;49056;48.352;10.926;2023-12-28T20:48:42;0.93;;;0.57;;
62957;SDS011;49056;48.352;10.926;2023-12-28T20:54:02;1.43;;;0.90;;
62957;SDS011;49056;48.352;10.926;2023-12-28T20:59:23;1.55;;;0.50;;
62957;SDS011;49056;48.352;10.926;2023-12-28T21:04:43;0.73;;;0.57;;
62957;SDS011;49056;48.352;10.926;2023-12-28T21:10:03;0.82;;;0.50;;
62957;SDS011;49056;48.352;10.926;2023-12-28T21:15:24;0.70;;;0.47;;
62957;SDS011;49056;48.352;10.926;2023-12-28T21:20:44;2.20;;;0.70;;
62957;SDS011;49056;48.352;10.926;2023-12-28T21:26:04;0.70;;;0.50;;
62957;SDS011;49056;48.352;10.926;2023-12-28T21:31:25;1.37;;;0.70;;
62957;SDS011;49056;48.352;10.926;2023-12-28T21:36:47;1.45;;;0.80;;
62957;SDS011;49056;48.352;10.926;2023-12-28T21:42:08;1.33;;;0.50;;
62957;SDS011;49056;48.352;10.926;2023-12-28T21:47:28;1.65;;;0.62;;
62957;SDS011;49056;48.352;10.926;2023-12-28T21:52:49;0.70;;;0.50;;
62957;SDS011;49056;48.352;10.926;2023-12-28T21:58:09;0.73;;;0.50;;
62957;SDS011;49056;48.352;10.926;2023-12-28T22:03:30;0.55;;;0.28;;
62957;SDS011;49056;48.352;10.926;2023-12-28T22:08:50;1.17;;;0.60;;
62957;SDS011;49056;48.352;10.926;2023-12-28T22:14:12;1.40;;;1.05;;
62957;SDS011;49056;48.352;10.926;2023-12-28T22:19:32;2.17;;;0.60;;
62957;SDS011;49056;48.352;10.926;2023-12-28T22:24:52;1.10;;;0.60;;
62957;SDS011;49056;48.352;10.926;2023-12-28T22:30:14;0.43;;;0.40;;
62957;SDS011;49056;48.352;10.926;2023-12-28T22:35:36;1.75;;;0.60;;
62957;SDS011;49056;48.352;10.926;2023-12-28T22:40:57;0.90;;;0.65;;
62957;SDS011;49056;48.352;10.926;2023-12-28T22:46:17;1.23;;;0.70;;
62957;SDS011;49056;48.352;10.926;2023-12-28T22:51:37;2.28;;;1.05;;
62957;SDS011;49056;48.352;10.926;2023-12-28T22:56:58;1.02;;;0.57;;
62957;SDS011;49056;48.352;10.926;2023-12-28T23:02:18;1.15;;;0.60;;
62957;SDS011;49056;48.352;10.926;2023-12-28T23:07:39;0.68;;;0.32;;
62957;SDS011;49056;48.352;10.926;2023-12-28T23:13:00;0.93;;;0.57;;
62957;SDS011;49056;48.352;10.926;2023-12-28T23:18:20;0.87;;;0.40;;
62957;SDS011;49056;48.352;10.926;2023-12-28T23:23:40;1.02;;;0.45;;
62957;SDS011;49056;48.352;10.926;2023-12-28T23:29:01;1.67;;;0.80;;
62957;SDS011;49056;48.352;10.926;2023-12-28T23:34:21;1.62;;;0.80;;
62957;SDS011;49056;48.352;10.926;2023-12-28T23:39:43;1.42;;;0.80;;
62957;SDS011;49056;48.352;10.926;2023-12-28T23:45:04;1.08;;;0.55;;
62957;SDS011;49056;48.352;10.926;2023-12-28T23:50:24;1.00;;;0.60;;
62957;SDS011;49056;48.352;10.926;2023-12-28T23:55:45;1.73;;;0.85;;
